KCEZ/CEZ METAR and TAF weather

Enter ICAO airport designator
Station Type Date Time Source
KCEZ METAR 2022/01/29 12:53 UTC NOAA

KCEZ 291253Z AUTO 07004KT 10SM CLR M13/M15 A3041 RMK AO2 SLP340 T11331150


Station Type Date Time Source
KCEZ Decoded METAR 2022/01/29 12:53 UTC NOAA

CORTEZ MONTEZUMA COUNTY AIRPORT , CO, United States (KCEZ) 37-18N 108-38W 1797M
Jan 29, 2022 - 07:53 AM EST / 2022.01.29 1253 UTC
Wind: from the ENE (070 degrees) at 5 MPH (4 KT):0
Visibility: 10 mile(s):0
Sky conditions: clear
Temperature: 8.1 F (-13.3 C)
Windchill: 0 F (-18 C):1
Dew Point: 5.0 F (-15.0 C)
Relative Humidity: 87%
Pressure (altimeter): 30.41 in. Hg (1029 hPa)
ob: KCEZ 291253Z AUTO 07004KT 10SM CLR M13/M15 A3041 RMK AO2 SLP340 T11331150
cycle: 13

Station Type Date Time Source
KCEZ TAF UTC NOAA

Error!

Example: see airport list